Time;durP1;ratioP1;P1;durP2;ratioP2;P2;SDS_P1;SDS_P2;PMS_P1;PMS_P2;Temp;Humidity;BMP_temperature;BMP_pressure;BME280_temperature;BME280_humidity;BME280_pressure;Samples;Min_cycle;Max_cycle;Signal;HPM_P1;HPM_P2
2021/03/10 00:01:53;;;;;;;21.80;13.60;;;7.00;99.90;;;;;;4965778;28;20050;-76
2021/03/10 00:04:19;;;;;;;20.15;12.27;;;7.00;99.90;;;;;;4970692;28;20035;-76
2021/03/10 00:06:44;;;;;;;15.25;12.85;;;6.90;99.90;;;;;;4954083;28;20392;-77
2021/03/10 00:09:10;;;;;;;21.27;15.18;;;6.90;99.90;;;;;;4958662;28;20121;-76
2021/03/10 00:11:36;;;;;;;15.35;12.48;;;6.90;99.90;;;;;;4955372;28;20031;-76
2021/03/10 00:14:02;;;;;;;17.60;12.75;;;6.90;99.90;;;;;;4963037;28;20042;-76
2021/03/10 00:16:31;;;;;;;15.45;11.77;;;7.00;99.90;;;;;;4955546;28;20073;-77
2021/03/10 00:18:57;;;;;;;23.55;15.68;;;7.00;99.90;;;;;;4950847;28;20023;-76
2021/03/10 00:21:23;;;;;;;21.02;15.23;;;7.00;99.90;;;;;;4951154;28;20023;-76
2021/03/10 00:23:49;;;;;;;16.27;12.68;;;6.90;99.90;;;;;;4962191;28;20034;-76
2021/03/10 00:26:15;;;;;;;17.02;12.65;;;6.90;99.90;;;;;;4962246;28;20042;-75
2021/03/10 00:28:41;;;;;;;16.73;12.45;;;7.00;99.90;;;;;;4956030;28;20402;-76
2021/03/10 00:31:07;;;;;;;16.98;12.77;;;6.90;99.90;;;;;;4958088;28;20062;-76
2021/03/10 00:33:33;;;;;;;19.80;13.52;;;7.00;99.90;;;;;;4958174;28;20461;-76
2021/03/10 00:35:59;;;;;;;19.60;13.25;;;7.00;99.90;;;;;;4961999;28;20029;-76
2021/03/10 00:38:25;;;;;;;18.83;14.55;;;7.00;99.90;;;;;;4949790;28;20059;-76
2021/03/10 00:40:51;;;;;;;24.13;14.02;;;6.90;99.90;;;;;;4959210;28;20035;-76
2021/03/10 00:43:17;;;;;;;18.67;13.05;;;7.00;99.90;;;;;;4954641;28;20031;-76
2021/03/10 00:45:43;;;;;;;14.88;12.18;;;6.90;99.90;;;;;;4960141;28;20038;-76
2021/03/10 00:48:21;;;;;;;15.65;13.18;;;7.00;99.90;;;;;;4958131;28;20035;-75
2021/03/10 00:50:47;;;;;;;22.25;13.07;;;7.00;99.90;;;;;;4967427;28;20031;-76
2021/03/10 00:53:13;;;;;;;18.95;14.23;;;6.90;99.90;;;;;;4958341;28;20027;-76
2021/03/10 00:55:39;;;;;;;25.90;14.30;;;7.00;99.90;;;;;;4945988;28;20032;-76
2021/03/10 00:58:05;;;;;;;21.40;15.38;;;7.00;99.90;;;;;;4957326;28;20054;-76
2021/03/10 01:00:31;;;;;;;13.88;11.70;;;7.00;99.90;;;;;;4961356;28;20175;-77
2021/03/10 01:02:57;;;;;;;20.33;15.18;;;7.00;99.90;;;;;;4957816;28;20032;-77
2021/03/10 01:05:23;;;;;;;17.45;12.30;;;7.00;99.90;;;;;;4973935;28;20034;-76
2021/03/10 01:07:49;;;;;;;18.00;11.07;;;7.00;99.90;;;;;;4968589;28;20027;-76
2021/03/10 01:10:21;;;;;;;16.42;11.30;;;7.00;99.90;;;;;;4949183;28;20062;-76
2021/03/10 01:12:47;;;;;;;18.05;12.85;;;6.90;99.90;;;;;;4960991;28;20046;-77
2021/03/10 01:15:16;;;;;;;21.83;14.25;;;7.00;99.90;;;;;;4963588;28;20027;-76
2021/03/10 01:17:43;;;;;;;19.27;14.13;;;7.00;99.90;;;;;;4962635;28;20029;-76
2021/03/10 01:20:18;;;;;;;20.75;13.93;;;6.90;99.90;;;;;;4956573;28;20078;-77
2021/03/10 01:22:45;;;;;;;21.15;14.65;;;6.90;99.90;;;;;;4952861;28;20034;-76
2021/03/10 01:25:12;;;;;;;16.65;14.15;;;6.90;99.90;;;;;;4978636;28;20496;-77
2021/03/10 01:27:38;;;;;;;14.50;11.35;;;6.90;99.90;;;;;;4959705;28;20058;-76
2021/03/10 01:30:07;;;;;;;22.20;14.73;;;6.90;99.90;;;;;;4964416;28;20090;-76
2021/03/10 01:32:33;;;;;;;16.70;13.30;;;6.80;99.90;;;;;;4955817;28;20031;-76
2021/03/10 01:35:00;;;;;;;18.88;12.25;;;6.80;99.90;;;;;;4956365;28;20533;-76
2021/03/10 01:37:25;;;;;;;19.08;14.85;;;6.80;99.90;;;;;;4954764;28;20077;-77
2021/03/10 01:39:51;;;;;;;21.67;13.30;;;6.70;99.90;;;;;;4959404;28;20038;-77
2021/03/10 01:42:17;;;;;;;21.75;15.32;;;6.70;99.90;;;;;;4961100;28;20033;-76
2021/03/10 01:44:43;;;;;;;20.60;13.90;;;6.70;99.90;;;;;;4953410;28;20030;-76
2021/03/10 01:47:09;;;;;;;18.02;13.15;;;6.70;99.90;;;;;;4962671;28;20034;-76
2021/03/10 01:49:36;;;;;;;20.15;14.65;;;6.70;99.90;;;;;;4956172;28;20038;-76
2021/03/10 01:52:03;;;;;;;17.50;13.23;;;6.70;99.90;;;;;;4957730;28;20038;-76
2021/03/10 01:54:29;;;;;;;18.05;14.25;;;6.70;99.90;;;;;;4966569;28;20381;-77
2021/03/10 01:56:55;;;;;;;22.05;16.33;;;6.70;99.90;;;;;;4943654;28;20049;-76
2021/03/10 01:59:34;;;;;;;18.20;13.00;;;6.60;99.90;;;;;;4953775;28;20540;-77
2021/03/10 02:02:00;;;;;;;20.67;15.02;;;6.50;99.90;;;;;;4953364;28;20482;-77
2021/03/10 02:04:26;;;;;;;22.10;12.90;;;6.60;99.90;;;;;;4967173;28;20024;-76
2021/03/10 02:07:07;;;;;;;19.67;14.35;;;6.60;99.90;;;;;;4962741;28;20094;-76
2021/03/10 02:09:58;;;;;;;21.50;15.18;;;6.60;99.90;;;;;;4972500;28;20034;-76
2021/03/10 02:12:32;;;;;;;12.77;10.73;;;6.60;99.90;;;;;;4958136;28;20026;-77
2021/03/10 02:15:16;;;;;;;16.25;12.98;;;6.60;99.90;;;;;;4951296;28;20478;-77
2021/03/10 02:17:50;;;;;;;20.17;15.63;;;6.50;99.90;;;;;;4948847;28;20410;-76
2021/03/10 02:20:15;;;;;;;22.60;16.30;;;6.50;99.90;;;;;;4959134;28;20024;-77
2021/03/10 02:22:59;;;;;;;22.00;16.98;;;6.40;99.90;;;;;;4956658;28;20047;-77
2021/03/10 02:26:03;;;;;;;21.60;15.32;;;6.30;99.90;;;;;;4969196;28;20026;-77
2021/03/10 02:28:30;;;;;;;25.55;16.70;;;6.20;99.90;;;;;;4954324;28;20035;-77
2021/03/10 02:30:57;;;;;;;20.33;16.13;;;6.40;99.90;;;;;;4950602;28;20054;-76
2021/03/10 02:33:27;;;;;;;21.67;16.02;;;6.40;99.90;;;;;;4964788;28;20026;-77
2021/03/10 02:36:07;;;;;;;23.80;17.02;;;6.30;99.90;;;;;;4976245;28;20039;-77
2021/03/10 02:38:33;;;;;;;19.65;15.95;;;6.20;99.90;;;;;;4946933;28;20327;-77
2021/03/10 02:41:00;;;;;;;21.05;16.05;;;6.20;99.90;;;;;;4957925;28;20030;-77
2021/03/10 02:43:28;;;;;;;25.88;17.40;;;6.20;99.90;;;;;;4959237;28;20050;-77
2021/03/10 02:45:55;;;;;;;21.23;16.08;;;6.20;99.90;;;;;;4955470;28;20027;-78
2021/03/10 02:48:25;;;;;;;21.58;16.77;;;6.20;99.90;;;;;;4947710;28;20106;-77
2021/03/10 02:50:53;;;;;;;19.27;14.90;;;6.10;99.90;;;;;;4967724;28;20163;-77
2021/03/10 02:53:19;;;;;;;17.02;14.80;;;6.20;99.90;;;;;;4954181;28;20031;-77
2021/03/10 02:55:45;;;;;;;21.85;14.27;;;6.30;99.90;;;;;;4955889;28;20034;-77
2021/03/10 02:58:11;;;;;;;23.27;16.42;;;6.40;99.90;;;;;;4955094;28;20026;-76
2021/03/10 03:00:38;;;;;;;21.70;15.32;;;6.50;99.90;;;;;;4965915;28;20082;-76
2021/03/10 03:03:04;;;;;;;24.52;16.92;;;6.40;99.90;;;;;;4964500;28;20031;-77
2021/03/10 03:05:32;;;;;;;19.95;14.80;;;6.30;99.90;;;;;;4950948;28;20037;-77
2021/03/10 03:07:59;;;;;;;22.58;16.20;;;6.40;99.90;;;;;;4963105;28;20039;-77
2021/03/10 03:10:29;;;;;;;21.52;15.45;;;6.40;99.90;;;;;;4960555;28;20279;-77
2021/03/10 03:12:55;;;;;;;22.70;15.43;;;6.50;99.90;;;;;;4960982;28;20037;-76
2021/03/10 03:15:23;;;;;;;21.27;16.02;;;6.40;99.90;;;;;;4948999;29;20042;-77
2021/03/10 03:17:50;;;;;;;22.98;15.90;;;6.50;99.90;;;;;;4964721;28;20031;-77
2021/03/10 03:20:18;;;;;;;23.83;16.05;;;6.50;99.90;;;;;;4954196;28;20077;-77
2021/03/10 03:22:50;;;;;;;16.83;13.43;;;6.50;99.90;;;;;;4961042;28;20147;-76
2021/03/10 03:25:17;;;;;;;21.88;15.05;;;6.40;99.90;;;;;;4947766;29;20157;-76
2021/03/10 03:27:48;;;;;;;19.52;15.93;;;6.30;99.90;;;;;;4953309;28;20028;-76
2021/03/10 03:30:16;;;;;;;18.55;15.40;;;6.20;99.90;;;;;;4960690;28;20055;-76
2021/03/10 03:32:44;;;;;;;24.70;17.02;;;6.20;99.90;;;;;;4956566;28;20075;-77
2021/03/10 03:35:11;;;;;;;18.33;14.90;;;6.20;99.90;;;;;;4950608;29;20323;-77
2021/03/10 03:37:38;;;;;;;20.25;15.68;;;6.10;99.90;;;;;;4954251;28;20030;-77
2021/03/10 03:40:10;;;;;;;19.40;14.50;;;6.10;99.90;;;;;;4973476;28;20082;-76
2021/03/10 03:42:37;;;;;;;18.35;14.40;;;6.10;99.90;;;;;;4963629;28;20118;-76
2021/03/10 03:45:04;;;;;;;20.33;16.33;;;6.10;99.90;;;;;;4967199;28;20283;-76
2021/03/10 03:47:30;;;;;;;24.23;15.02;;;6.20;99.90;;;;;;4954589;28;20031;-77
2021/03/10 03:49:56;;;;;;;28.30;14.23;;;6.10;99.90;;;;;;4973652;28;20428;-78
2021/03/10 03:52:22;;;;;;;18.17;15.35;;;6.30;99.90;;;;;;4960962;28;20042;-76
2021/03/10 03:54:48;;;;;;;25.10;15.70;;;6.30;99.90;;;;;;4962714;28;20051;-76
2021/03/10 03:57:14;;;;;;;18.77;13.70;;;6.30;99.90;;;;;;4961759;28;20094;-77
2021/03/10 03:59:40;;;;;;;19.38;14.10;;;6.40;99.90;;;;;;4960703;28;20067;-76
2021/03/10 04:02:06;;;;;;;20.70;13.57;;;6.40;99.90;;;;;;4955572;28;20030;-76
2021/03/10 04:04:32;;;;;;;17.90;13.65;;;6.30;99.90;;;;;;4970304;28;20113;-76
2021/03/10 04:06:59;;;;;;;16.35;14.65;;;6.30;99.90;;;;;;4955497;28;20095;-76
2021/03/10 04:09:25;;;;;;;24.67;14.07;;;6.20;99.90;;;;;;4960494;28;20031;-77
2021/03/10 04:11:51;;;;;;;20.25;15.23;;;6.20;99.90;;;;;;4945695;28;20138;-76
2021/03/10 04:14:18;;;;;;;20.77;14.25;;;6.00;99.90;;;;;;4946849;28;20106;-77
2021/03/10 04:16:44;;;;;;;19.63;12.48;;;5.90;99.90;;;;;;4952311;28;20489;-76
2021/03/10 04:19:10;;;;;;;18.13;14.48;;;5.90;99.90;;;;;;4963289;28;20050;-77
2021/03/10 04:21:37;;;;;;;19.88;15.07;;;5.90;99.90;;;;;;4959873;28;20618;-77
2021/03/10 04:24:04;;;;;;;22.77;13.40;;;5.90;99.90;;;;;;4961510;28;20031;-76
2021/03/10 04:26:30;;;;;;;22.65;15.45;;;5.90;99.90;;;;;;4954662;28;20032;-76
2021/03/10 04:28:55;;;;;;;18.92;14.00;;;5.90;99.90;;;;;;4956246;28;20054;-76
2021/03/10 04:31:21;;;;;;;18.25;14.10;;;5.90;99.90;;;;;;4959002;28;20058;-76
2021/03/10 04:33:47;;;;;;;17.85;14.65;;;6.00;99.90;;;;;;4969943;28;20023;-77
2021/03/10 04:36:13;;;;;;;15.70;13.18;;;6.10;99.90;;;;;;4956301;28;20031;-76
2021/03/10 04:38:39;;;;;;;17.33;12.90;;;6.10;99.90;;;;;;4957343;28;20023;-77
2021/03/10 04:41:05;;;;;;;19.15;14.68;;;6.10;99.90;;;;;;4950476;28;21705;-76
2021/03/10 04:43:31;;;;;;;19.58;14.63;;;6.10;99.90;;;;;;4958394;28;20023;-76
2021/03/10 04:45:57;;;;;;;20.85;15.35;;;5.90;99.90;;;;;;4954869;28;20034;-77
2021/03/10 04:48:27;;;;;;;18.17;14.10;;;5.90;99.90;;;;;;4944922;28;20027;-76
2021/03/10 04:51:47;;;;;;;20.15;16.35;;;5.80;99.90;;;;;;4952950;28;20023;-77
2021/03/10 04:54:13;;;;;;;21.45;14.30;;;5.80;99.90;;;;;;4941230;28;20126;-77
2021/03/10 04:56:39;;;;;;;18.00;14.30;;;6.00;99.90;;;;;;4958806;28;20062;-77
2021/03/10 04:59:05;;;;;;;20.05;14.35;;;6.00;99.90;;;;;;4955891;28;20115;-77
2021/03/10 05:01:31;;;;;;;18.73;14.13;;;6.10;99.90;;;;;;4953969;28;20066;-77
2021/03/10 05:03:57;;;;;;;22.20;13.95;;;6.20;99.90;;;;;;4963566;28;20078;-77
2021/03/10 05:06:23;;;;;;;16.98;11.50;;;6.20;99.90;;;;;;4956596;28;20031;-77
2021/03/10 05:08:48;;;;;;;20.50;15.43;;;6.30;99.90;;;;;;4973606;28;20277;-76
2021/03/10 05:11:17;;;;;;;22.55;15.15;;;6.20;99.90;;;;;;4964499;28;20034;-76
2021/03/10 05:13:44;;;;;;;19.67;15.32;;;6.00;99.90;;;;;;4961485;28;20035;-76
2021/03/10 05:16:49;;;;;;;22.17;14.32;;;5.90;99.90;;;;;;4957234;28;20038;-76
2021/03/10 05:19:29;;;;;;;20.60;15.93;;;5.90;99.90;;;;;;4909853;29;20032;-76
2021/03/10 05:22:17;;;;;;;25.45;16.60;;;5.80;99.90;;;;;;4911716;29;20038;-76
2021/03/10 05:24:51;;;;;;;22.17;16.05;;;5.70;99.90;;;;;;4893290;29;20518;-76
2021/03/10 05:27:35;;;;;;;18.05;14.50;;;5.70;99.90;;;;;;4907417;29;20075;-76
2021/03/10 05:30:48;;;;;;;18.55;13.85;;;5.70;99.90;;;;;;4912651;28;20035;-76
2021/03/10 05:33:31;;;;;;;22.80;15.82;;;5.60;99.90;;;;;;4948027;28;20035;-76
2021/03/10 05:35:58;;;;;;;22.67;15.60;;;5.60;99.90;;;;;;4955550;28;20067;-78
2021/03/10 05:38:24;;;;;;;22.70;15.32;;;5.60;99.90;;;;;;4960104;28;20106;-76
2021/03/10 05:40:50;;;;;;;20.20;15.43;;;5.60;99.90;;;;;;4965416;28;20031;-77
2021/03/10 05:43:17;;;;;;;22.33;15.95;;;5.50;99.90;;;;;;4952711;28;20086;-76
2021/03/10 05:45:44;;;;;;;21.33;16.00;;;5.50;99.90;;;;;;4973089;28;20034;-76
2021/03/10 05:48:10;;;;;;;22.75;16.25;;;5.60;99.90;;;;;;4970132;28;20031;-76
2021/03/10 05:50:36;;;;;;;26.90;16.75;;;5.70;99.90;;;;;;4966810;28;20034;-76
2021/03/10 05:53:03;;;;;;;25.95;17.23;;;5.70;99.90;;;;;;4963235;28;20027;-77
2021/03/10 05:55:32;;;;;;;20.15;15.10;;;5.70;99.90;;;;;;4956244;28;20432;-76
2021/03/10 05:57:58;;;;;;;25.77;16.48;;;5.70;99.90;;;;;;4957461;28;20037;-76
2021/03/10 06:00:27;;;;;;;26.63;15.35;;;5.70;99.90;;;;;;4955135;28;20057;-76
2021/03/10 06:02:53;;;;;;;21.80;15.43;;;5.70;99.90;;;;;;4953859;28;20067;-76
2021/03/10 06:05:23;;;;;;;23.35;15.23;;;5.70;99.90;;;;;;4949227;28;20062;-76
2021/03/10 06:08:03;;;;;;;20.40;14.30;;;5.70;99.90;;;;;;4952623;28;20047;-77
2021/03/10 06:10:43;;;;;;;23.17;16.13;;;5.70;99.90;;;;;;4961114;28;20051;-76
2021/03/10 06:13:23;;;;;;;24.48;16.38;;;5.80;99.90;;;;;;4966757;28;20033;-76
2021/03/10 06:15:51;;;;;;;23.13;14.98;;;5.80;99.90;;;;;;4966798;28;20033;-76
2021/03/10 06:18:43;;;;;;;20.02;15.73;;;5.90;99.90;;;;;;4966008;28;20071;-77
2021/03/10 06:21:12;;;;;;;23.92;17.17;;;5.90;99.90;;;;;;4950812;28;20035;-76
2021/03/10 06:23:50;;;;;;;21.75;15.38;;;6.00;99.90;;;;;;4960889;28;20035;-76
2021/03/10 06:26:18;;;;;;;20.92;14.20;;;6.00;99.90;;;;;;4951621;28;20423;-76
2021/03/10 06:28:44;;;;;;;21.67;17.08;;;6.00;99.90;;;;;;4965444;28;20022;-77
2021/03/10 06:31:23;;;;;;;21.92;16.33;;;6.10;99.90;;;;;;4958064;28;20370;-76
2021/03/10 06:34:04;;;;;;;29.05;16.95;;;6.10;99.90;;;;;;4959846;28;20035;-77
2021/03/10 06:36:33;;;;;;;21.65;16.48;;;6.20;99.90;;;;;;4953101;28;20032;-76
2021/03/10 06:39:00;;;;;;;23.98;17.50;;;6.20;99.90;;;;;;4955493;28;20044;-76
2021/03/10 06:41:35;;;;;;;26.98;15.95;;;6.20;99.90;;;;;;4956533;28;20175;-76
2021/03/10 06:44:12;;;;;;;30.05;16.45;;;6.20;99.90;;;;;;4958913;28;20110;-76
2021/03/10 06:46:58;;;;;;;23.15;13.77;;;6.30;99.90;;;;;;4961904;28;20030;-76
2021/03/10 06:49:51;;;;;;;22.08;16.55;;;6.30;99.90;;;;;;4954597;28;20053;-76
2021/03/10 06:52:29;;;;;;;23.38;16.60;;;6.30;99.90;;;;;;4950214;28;20212;-77
2021/03/10 06:55:00;;;;;;;21.25;15.57;;;6.40;99.90;;;;;;4964096;28;20022;-77
2021/03/10 06:58:15;;;;;;;26.02;19.10;;;6.50;99.90;;;;;;4956766;28;20024;-76
2021/03/10 07:00:42;;;;;;;21.33;15.23;;;6.60;99.90;;;;;;4956045;28;20029;-76
2021/03/10 07:03:11;;;;;;;18.95;14.07;;;6.60;99.90;;;;;;4951946;28;20023;-76
2021/03/10 07:05:43;;;;;;;25.15;16.27;;;6.60;99.90;;;;;;4969199;28;20031;-76
2021/03/10 07:08:13;;;;;;;19.48;14.57;;;6.60;99.90;;;;;;4952363;29;20027;-76
2021/03/10 07:10:39;;;;;;;21.83;14.20;;;6.60;99.90;;;;;;4954478;29;20082;-77
2021/03/10 07:13:05;;;;;;;24.10;17.00;;;6.70;99.90;;;;;;4957007;28;20031;-76
2021/03/10 07:15:31;;;;;;;27.98;16.98;;;6.80;99.90;;;;;;4953200;28;20039;-76
2021/03/10 07:17:58;;;;;;;18.98;13.35;;;6.90;99.90;;;;;;4950703;28;20699;-76
2021/03/10 07:20:25;;;;;;;26.65;17.05;;;7.00;99.90;;;;;;4942517;29;20060;-76
2021/03/10 07:22:59;;;;;;;25.83;17.17;;;7.00;99.90;;;;;;4950601;29;20105;-77
2021/03/10 07:25:41;;;;;;;27.00;16.50;;;7.10;99.90;;;;;;4949528;28;20031;-76
2021/03/10 07:28:20;;;;;;;30.05;18.83;;;7.20;99.90;;;;;;4959057;28;20035;-77
2021/03/10 07:30:49;;;;;;;26.08;15.80;;;7.20;99.90;;;;;;4957136;28;20375;-77
2021/03/10 07:33:21;;;;;;;23.58;17.15;;;7.30;99.90;;;;;;4955120;28;20038;-78
2021/03/10 07:35:50;;;;;;;23.73;15.27;;;7.40;99.90;;;;;;4942679;28;20111;-76
2021/03/10 07:38:17;;;;;;;20.10;14.38;;;7.50;99.90;;;;;;4954870;29;20035;-77
2021/03/10 07:41:03;;;;;;;18.60;13.35;;;7.50;99.90;;;;;;4963792;28;20071;-76
2021/03/10 07:43:47;;;;;;;32.97;18.90;;;7.50;99.90;;;;;;4950586;29;20032;-77
2021/03/10 07:46:29;;;;;;;27.48;16.25;;;7.60;99.90;;;;;;4948344;29;20134;-75
2021/03/10 07:52:08;;;;;;;24.70;16.90;;;7.70;99.90;;;;;;4928558;29;20474;-76
2021/03/10 07:54:38;;;;;;;19.85;15.40;;;7.70;99.60;;;;;;4956213;29;20055;-76
2021/03/10 07:57:12;;;;;;;23.58;16.10;;;7.80;99.60;;;;;;4956550;28;20019;-78
2021/03/10 07:59:53;;;;;;;24.33;17.05;;;7.80;99.50;;;;;;4956383;28;20028;-76
2021/03/10 08:02:20;;;;;;;21.73;16.42;;;7.80;99.00;;;;;;4944936;29;20121;-75
2021/03/10 08:05:25;;;;;;;20.67;15.00;;;7.80;99.70;;;;;;4936579;29;20121;-76
2021/03/10 08:08:14;;;;;;;26.45;17.15;;;7.80;99.40;;;;;;4947801;29;20039;-75
2021/03/10 08:10:44;;;;;;;25.92;17.63;;;8.00;99.40;;;;;;4954581;29;20125;-76
2021/03/10 08:13:28;;;;;;;32.70;15.20;;;8.10;99.30;;;;;;4956085;28;20035;-76
2021/03/10 08:16:02;;;;;;;21.83;16.65;;;8.10;98.90;;;;;;4956167;28;20042;-76
2021/03/10 08:18:31;;;;;;;24.85;16.20;;;8.10;98.70;;;;;;4939192;28;20047;-75
2021/03/10 08:21:10;;;;;;;22.42;17.90;;;8.10;98.70;;;;;;4939861;29;20035;-76
2021/03/10 08:23:39;;;;;;;24.70;16.70;;;8.10;98.70;;;;;;4951302;29;20038;-77
2021/03/10 08:26:07;;;;;;;23.25;16.48;;;8.30;98.40;;;;;;4942039;29;20431;-76
2021/03/10 08:28:36;;;;;;;24.23;16.63;;;8.30;98.40;;;;;;4953224;28;20087;-76
2021/03/10 08:31:07;;;;;;;19.85;16.30;;;8.40;98.10;;;;;;4941408;29;20041;-76
2021/03/10 08:33:49;;;;;;;20.80;16.48;;;8.40;98.20;;;;;;4955127;28;20035;-75
2021/03/10 08:36:16;;;;;;;23.15;15.60;;;8.60;98.10;;;;;;4937719;29;20498;-76
2021/03/10 08:38:42;;;;;;;33.55;15.75;;;8.60;98.10;;;;;;4947159;29;20406;-77
2021/03/10 08:41:09;;;;;;;23.10;16.30;;;8.80;98.10;;;;;;4936439;29;20387;-76
2021/03/10 08:43:35;;;;;;;27.50;14.95;;;9.10;98.20;;;;;;4954092;28;20027;-78
2021/03/10 08:46:02;;;;;;;30.08;17.08;;;9.20;97.30;;;;;;4949484;28;20136;-78
2021/03/10 08:48:35;;;;;;;48.30;19.92;;;9.20;97.30;;;;;;4949118;28;20023;-76
2021/03/10 08:51:04;;;;;;;23.95;17.05;;;9.20;97.50;;;;;;4958306;28;20139;-78
2021/03/10 08:53:30;;;;;;;23.58;16.38;;;9.30;97.80;;;;;;4958893;28;20028;-76
2021/03/10 08:56:05;;;;;;;19.17;16.17;;;9.40;97.30;;;;;;4959483;28;20494;-76
2021/03/10 08:58:31;;;;;;;21.20;16.23;;;9.50;97.30;;;;;;4959624;29;20031;-76
2021/03/10 09:00:57;;;;;;;24.77;16.38;;;9.50;97.50;;;;;;4955312;28;20024;-76
2021/03/10 09:03:23;;;;;;;25.17;14.48;;;9.70;97.40;;;;;;4959845;28;20031;-76
2021/03/10 09:05:50;;;;;;;28.42;17.15;;;9.70;96.70;;;;;;4959433;28;20418;-76
2021/03/10 09:08:22;;;;;;;19.70;15.07;;;9.70;96.70;;;;;;4957684;29;20045;-77
2021/03/10 09:10:50;;;;;;;29.88;19.38;;;9.80;96.70;;;;;;4957995;29;20102;-76
2021/03/10 09:13:19;;;;;;;21.13;15.23;;;9.90;96.50;;;;;;4957186;28;20683;-77
2021/03/10 09:15:46;;;;;;;20.67;14.73;;;10.00;96.40;;;;;;4938962;29;20031;-77
2021/03/10 09:18:11;;;;;;;18.33;16.05;;;9.90;95.80;;;;;;4948277;29;20031;-76
2021/03/10 09:20:40;;;;;;;20.63;15.88;;;9.90;95.70;;;;;;4938421;29;20116;-76
2021/03/10 09:23:07;;;;;;;25.63;16.90;;;10.00;95.90;;;;;;4969125;28;20120;-76
2021/03/10 09:25:35;;;;;;;18.58;15.15;;;10.00;95.80;;;;;;4941808;29;20043;-77
2021/03/10 09:28:04;;;;;;;19.42;13.95;;;10.00;95.50;;;;;;4952519;28;20039;-77
2021/03/10 09:30:37;;;;;;;20.75;14.90;;;10.10;95.60;;;;;;4944157;29;20066;-76
2021/03/10 09:33:03;;;;;;;19.42;15.38;;;10.10;95.60;;;;;;4946972;29;20031;-77
2021/03/10 09:35:33;;;;;;;22.85;16.15;;;10.30;96.10;;;;;;4959201;28;20047;-76
2021/03/10 09:38:05;;;;;;;21.63;15.60;;;10.50;96.00;;;;;;4947833;28;20338;-76
2021/03/10 09:40:37;;;;;;;34.58;17.55;;;10.50;95.40;;;;;;4946025;29;20027;-76
2021/03/10 09:43:06;;;;;;;19.88;16.00;;;10.70;95.50;;;;;;4941152;28;20305;-76
2021/03/10 09:45:34;;;;;;;19.92;14.68;;;10.90;94.90;;;;;;4939065;29;20457;-76
2021/03/10 09:48:00;;;;;;;20.00;14.13;;;10.90;94.60;;;;;;4951623;29;20031;-77
2021/03/10 09:50:33;;;;;;;18.35;14.32;;;10.90;94.50;;;;;;4951291;29;20390;-76
2021/03/10 09:53:10;;;;;;;24.58;16.40;;;11.00;94.50;;;;;;4944194;28;20083;-76
2021/03/10 09:55:35;;;;;;;18.60;14.50;;;11.10;94.70;;;;;;4953790;29;20102;-74
2021/03/10 09:58:09;;;;;;;19.95;15.50;;;11.10;93.80;;;;;;4945969;29;20462;-75
2021/03/10 10:00:36;;;;;;;19.70;16.05;;;11.10;94.00;;;;;;4970481;28;20027;-77
2021/03/10 10:03:03;;;;;;;21.48;15.82;;;11.00;93.50;;;;;;4957490;28;20028;-75
2021/03/10 10:05:34;;;;;;;19.13;15.13;;;11.00;93.80;;;;;;4957212;28;20437;-75
2021/03/10 10:08:02;;;;;;;23.70;17.30;;;11.00;93.40;;;;;;4955019;29;20232;-76
2021/03/10 10:10:31;;;;;;;22.65;16.10;;;11.00;93.80;;;;;;4957021;28;20035;-73
2021/03/10 10:12:58;;;;;;;19.10;16.25;;;11.10;93.60;;;;;;4954459;28;20046;-73
2021/03/10 10:15:30;;;;;;;26.80;17.92;;;11.00;94.40;;;;;;4957568;28;20398;-74
2021/03/10 10:17:57;;;;;;;;;;;11.20;93.90;;;;;;4948752;29;20055;-74
2021/03/10 10:20:27;;;;;;;18.33;15.25;;;11.30;93.80;;;;;;4958773;28;19918;-73
2021/03/10 10:22:53;;;;;;;22.25;16.25;;;11.50;94.10;;;;;;4937761;28;20059;-74
2021/03/10 10:25:20;;;;;;;28.73;20.10;;;11.50;93.40;;;;;;4938296;29;20038;-75
2021/03/10 10:27:48;;;;;;;17.90;15.93;;;11.60;94.00;;;;;;4954059;28;20042;-76
2021/03/10 10:30:17;;;;;;;22.20;14.55;;;11.70;94.10;;;;;;4967890;28;20030;-74
2021/03/10 10:32:43;;;;;;;24.88;16.70;;;11.90;93.50;;;;;;4954276;28;20368;-74
2021/03/10 10:35:10;;;;;;;23.27;18.67;;;12.00;93.50;;;;;;4943567;29;20037;-74
2021/03/10 10:37:36;;;;;;;17.63;15.00;;;12.10;94.30;;;;;;4957489;28;20075;-74
2021/03/10 10:40:06;;;;;;;16.35;14.48;;;12.30;93.50;;;;;;4952709;28;20027;-74
2021/03/10 10:42:32;;;;;;;24.33;16.20;;;12.50;93.30;;;;;;4947192;28;20058;-74
2021/03/10 10:44:58;;;;;;;15.73;13.85;;;12.60;92.10;;;;;;4959941;28;20030;-74
2021/03/10 10:47:25;;;;;;;18.25;14.25;;;12.40;91.30;;;;;;4962259;28;20041;-72
2021/03/10 10:49:51;;;;;;;23.23;15.43;;;12.00;92.20;;;;;;4963808;28;20058;-76
2021/03/10 10:52:17;;;;;;;22.67;16.08;;;12.00;92.20;;;;;;4959957;28;20082;-74
2021/03/10 10:54:43;;;;;;;17.90;15.02;;;12.00;92.50;;;;;;4937224;29;20730;-74
2021/03/10 10:57:09;;;;;;;21.23;16.33;;;12.20;92.30;;;;;;4936371;29;20024;-74
2021/03/10 10:59:35;;;;;;;18.58;15.93;;;12.40;92.40;;;;;;4943194;29;20505;-74
2021/03/10 11:02:01;;;;;;;17.30;15.45;;;12.40;91.40;;;;;;4944441;29;20039;-74
2021/03/10 11:04:27;;;;;;;18.90;15.63;;;12.40;91.40;;;;;;4946988;28;20506;-73
2021/03/10 11:06:53;;;;;;;16.58;14.93;;;12.20;91.20;;;;;;4936788;29;20211;-74
2021/03/10 11:09:19;;;;;;;18.05;14.40;;;12.20;91.60;;;;;;4950096;29;20027;-74
2021/03/10 11:11:44;;;;;;;19.63;15.65;;;12.30;91.20;;;;;;4955336;28;20155;-74
2021/03/10 11:14:10;;;;;;;21.70;14.93;;;12.20;90.90;;;;;;4954196;28;20042;-73
2021/03/10 11:16:36;;;;;;;19.90;15.43;;;12.30;91.30;;;;;;4955538;29;20028;-73
2021/03/10 11:19:02;;;;;;;20.58;15.23;;;12.30;91.20;;;;;;4935649;29;20028;-73
2021/03/10 11:21:28;;;;;;;26.52;15.82;;;12.40;90.80;;;;;;4941697;29;20054;-73
2021/03/10 11:23:54;;;;;;;18.35;16.45;;;12.50;90.80;;;;;;4936618;29;20470;-73
2021/03/10 11:26:20;;;;;;;18.08;16.17;;;12.40;90.30;;;;;;4943663;29;20028;-74
2021/03/10 11:28:46;;;;;;;21.50;16.48;;;12.40;90.60;;;;;;4948281;28;20031;-74
2021/03/10 11:31:12;;;;;;;24.73;16.13;;;12.50;91.20;;;;;;4954944;28;20023;-73
2021/03/10 11:33:38;;;;;;;17.88;15.50;;;12.60;91.30;;;;;;4954871;28;20030;-73
2021/03/10 11:36:06;;;;;;;19.55;15.65;;;12.50;90.40;;;;;;4953909;29;20023;-74
2021/03/10 11:38:33;;;;;;;18.45;13.85;;;12.60;90.70;;;;;;4946328;28;20024;-73
2021/03/10 11:41:00;;;;;;;18.45;15.75;;;12.60;90.90;;;;;;4936652;29;20027;-73
2021/03/10 11:43:26;;;;;;;17.08;15.27;;;12.60;90.80;;;;;;4949751;29;20066;-74
2021/03/10 11:45:52;;;;;;;16.85;14.20;;;12.70;90.40;;;;;;4954239;28;20101;-73
2021/03/10 11:48:18;;;;;;;18.23;16.30;;;12.60;89.90;;;;;;4960347;28;20029;-78
2021/03/10 11:50:44;;;;;;;20.98;15.98;;;12.70;90.70;;;;;;4964108;28;20101;-73
2021/03/10 11:53:10;;;;;;;15.95;14.30;;;12.70;89.20;;;;;;4949294;28;20055;-73
2021/03/10 11:55:36;;;;;;;17.33;14.57;;;12.60;89.40;;;;;;4954600;28;20027;-73
2021/03/10 11:58:02;;;;;;;20.55;14.70;;;12.80;90.00;;;;;;4958340;28;20097;-73
2021/03/10 12:00:28;;;;;;;18.55;15.60;;;12.80;88.50;;;;;;4939113;29;20032;-74
2021/03/10 12:02:54;;;;;;;17.55;15.43;;;12.70;89.30;;;;;;4936497;29;20033;-73
2021/03/10 12:05:21;;;;;;;18.35;14.15;;;12.70;88.80;;;;;;4947256;29;20031;-73
2021/03/10 12:07:47;;;;;;;19.63;15.43;;;12.80;88.20;;;;;;4954059;28;20050;-74
2021/03/10 12:10:14;;;;;;;15.07;13.48;;;12.90;88.40;;;;;;4954185;28;20031;-74
2021/03/10 12:12:40;;;;;;;23.70;15.93;;;12.90;88.00;;;;;;4943127;28;20111;-74
2021/03/10 12:15:08;;;;;;;19.65;16.27;;;13.00;88.60;;;;;;4941765;29;20490;-73
2021/03/10 12:17:34;;;;;;;16.65;14.88;;;13.10;88.00;;;;;;4955748;28;20071;-72
2021/03/10 12:20:00;;;;;;;18.77;15.60;;;13.20;87.50;;;;;;4946581;28;20452;-72
2021/03/10 12:22:26;;;;;;;18.73;16.23;;;13.30;90.30;;;;;;4952663;28;20034;-73
2021/03/10 12:24:52;;;;;;;17.83;15.32;;;13.20;92.50;;;;;;4957684;28;20039;-73
2021/03/10 12:27:24;;;;;;;18.95;16.13;;;13.10;90.10;;;;;;4946807;28;20042;-73
2021/03/10 12:29:51;;;;;;;21.13;18.02;;;13.20;91.70;;;;;;4955313;28;20031;-73
2021/03/10 12:32:18;;;;;;;26.15;20.45;;;13.10;94.40;;;;;;4956355;28;20042;-73
2021/03/10 12:34:44;;;;;;;24.15;19.42;;;13.00;95.70;;;;;;4955500;29;20058;-73
2021/03/10 12:37:10;;;;;;;22.80;17.77;;;12.70;96.40;;;;;;4948073;29;20443;-73
2021/03/10 12:39:36;;;;;;;23.75;18.85;;;12.60;96.00;;;;;;4954156;29;20030;-73
2021/03/10 12:42:02;;;;;;;25.65;18.13;;;12.60;97.30;;;;;;4942145;29;20035;-73
2021/03/10 12:44:28;;;;;;;21.67;17.10;;;12.60;97.00;;;;;;4944994;29;20475;-73
2021/03/10 12:46:54;;;;;;;18.20;16.08;;;12.60;94.30;;;;;;4946828;28;20028;-73
2021/03/10 12:49:20;;;;;;;23.88;17.63;;;12.90;94.30;;;;;;4955980;28;20180;-73